sensor_id;sensor_type;location;lat;lon;timestamp;pressure;altitude;pressure_sealevel;temperature;humidity
75008;BME280;63554;48.940;12.050;2023-07-29T00:03:51;97021.31;;;16.75;100.00
75008;BME280;63554;48.940;12.050;2023-07-29T00:07:54;97026.78;;;16.75;100.00
75008;BME280;63554;48.940;12.050;2023-07-29T00:11:58;97034.13;;;16.70;100.00
75008;BME280;63554;48.940;12.050;2023-07-29T00:16:00;97039.03;;;16.68;100.00
75008;BME280;63554;48.940;12.050;2023-07-29T00:20:04;97030.00;;;16.62;100.00
75008;BME280;63554;48.940;12.050;2023-07-29T00:24:09;97027.25;;;16.62;100.00
75008;BME280;63554;48.940;12.050;2023-07-29T00:28:13;97022.34;;;16.59;100.00
75008;BME280;63554;48.940;12.050;2023-07-29T00:32:16;97031.63;;;16.58;100.00
75008;BME280;63554;48.940;12.050;2023-07-29T00:36:19;97025.34;;;16.57;100.00
75008;BME280;63554;48.940;12.050;2023-07-29T00:40:22;97024.78;;;16.55;100.00
75008;BME280;63554;48.940;12.050;2023-07-29T00:44:26;97032.97;;;16.55;100.00
75008;BME280;63554;48.940;12.050;2023-07-29T00:48:29;97028.34;;;16.56;100.00
75008;BME280;63554;48.940;12.050;2023-07-29T00:52:32;97033.25;;;16.54;100.00
75008;BME280;63554;48.940;12.050;2023-07-29T00:56:35;97025.84;;;16.49;100.00
75008;BME280;63554;48.940;12.050;2023-07-29T01:00:39;97024.50;;;16.47;100.00
75008;BME280;63554;48.940;12.050;2023-07-29T01:04:42;97013.53;;;16.41;100.00
75008;BME280;63554;48.940;12.050;2023-07-29T01:08:51;97009.44;;;16.44;100.00
75008;BME280;63554;48.940;12.050;2023-07-29T01:13:04;97007.53;;;16.45;100.00
75008;BME280;63554;48.940;12.050;2023-07-29T01:17:13;97004.81;;;16.45;100.00
75008;BME280;63554;48.940;12.050;2023-07-29T01:21:19;97009.72;;;16.43;100.00
75008;BME280;63554;48.940;12.050;2023-07-29T01:25:23;97008.06;;;16.41;100.00
75008;BME280;63554;48.940;12.050;2023-07-29T01:29:26;97019.25;;;16.40;100.00
75008;BME280;63554;48.940;12.050;2023-07-29T01:33:35;97009.69;;;16.37;100.00
75008;BME280;63554;48.940;12.050;2023-07-29T01:37:44;96995.72;;;16.34;100.00
75008;BME280;63554;48.940;12.050;2023-07-29T01:41:51;96994.38;;;16.36;100.00
75008;BME280;63554;48.940;12.050;2023-07-29T01:45:54;96995.75;;;16.39;100.00
75008;BME280;63554;48.940;12.050;2023-07-29T01:49:56;96997.66;;;16.38;100.00
75008;BME280;63554;48.940;12.050;2023-07-29T01:53:59;96996.28;;;16.36;100.00
75008;BME280;63554;48.940;12.050;2023-07-29T01:58:03;96996.03;;;16.37;100.00
75008;BME280;63554;48.940;12.050;2023-07-29T02:02:06;96997.09;;;16.36;100.00
75008;BME280;63554;48.940;12.050;2023-07-29T02:06:09;97002.56;;;16.36;100.00
75008;BME280;63554;48.940;12.050;2023-07-29T02:10:12;97000.13;;;16.35;100.00
75008;BME280;63554;48.940;12.050;2023-07-29T02:14:16;96994.09;;;16.33;100.00
75008;BME280;63554;48.940;12.050;2023-07-29T02:18:18;96985.63;;;16.34;100.00
75008;BME280;63554;48.940;12.050;2023-07-29T02:22:21;96999.56;;;16.33;100.00
75008;BME280;63554;48.940;12.050;2023-07-29T02:26:24;96999.81;;;16.31;100.00
75008;BME280;63554;48.940;12.050;2023-07-29T02:30:28;96994.63;;;16.30;100.00
75008;BME280;63554;48.940;12.050;2023-07-29T02:34:30;97003.34;;;16.27;100.00
75008;BME280;63554;48.940;12.050;2023-07-29T02:38:33;97015.63;;;16.24;100.00
75008;BME280;63554;48.940;12.050;2023-07-29T02:42:36;97011.78;;;16.20;100.00
75008;BME280;63554;48.940;12.050;2023-07-29T02:46:41;97006.28;;;16.15;100.00
75008;BME280;63554;48.940;12.050;2023-07-29T02:50:43;97012.28;;;16.17;100.00
75008;BME280;63554;48.940;12.050;2023-07-29T02:54:46;97000.53;;;16.11;100.00
75008;BME280;63554;48.940;12.050;2023-07-29T02:58:49;96990.94;;;16.09;100.00
75008;BME280;63554;48.940;12.050;2023-07-29T03:02:54;97001.88;;;16.09;100.00
75008;BME280;63554;48.940;12.050;2023-07-29T03:06:56;96982.75;;;16.09;100.00
75008;BME280;63554;48.940;12.050;2023-07-29T03:11:05;96983.88;;;16.08;100.00
75008;BME280;63554;48.940;12.050;2023-07-29T03:15:08;96980.84;;;16.04;100.00
75008;BME280;63554;48.940;12.050;2023-07-29T03:19:12;96991.19;;;16.02;100.00
75008;BME280;63554;48.940;12.050;2023-07-29T03:23:15;96984.88;;;15.96;100.00
75008;BME280;63554;48.940;12.050;2023-07-29T03:27:18;96975.03;;;15.95;100.00
75008;BME280;63554;48.940;12.050;2023-07-29T03:31:20;96978.81;;;15.89;100.00
75008;BME280;63554;48.940;12.050;2023-07-29T03:35:24;96987.00;;;15.84;100.00
75008;BME280;63554;48.940;12.050;2023-07-29T03:39:27;96992.41;;;15.79;100.00
75008;BME280;63554;48.940;12.050;2023-07-29T03:43:30;96988.56;;;15.75;100.00
75008;BME280;63554;48.940;12.050;2023-07-29T03:47:32;96990.38;;;15.69;100.00
75008;BME280;63554;48.940;12.050;2023-07-29T03:51:36;96986.78;;;15.63;100.00
75008;BME280;63554;48.940;12.050;2023-07-29T03:55:39;96987.78;;;15.52;100.00
75008;BME280;63554;48.940;12.050;2023-07-29T03:59:42;96989.69;;;15.47;100.00
75008;BME280;63554;48.940;12.050;2023-07-29T04:03:45;96977.66;;;15.48;100.00
75008;BME280;63554;48.940;12.050;2023-07-29T04:07:53;96982.94;;;15.54;100.00
75008;BME280;63554;48.940;12.050;2023-07-29T04:11:56;96983.50;;;15.61;100.00
75008;BME280;63554;48.940;12.050;2023-07-29T04:15:59;97000.50;;;15.69;100.00
75008;BME280;63554;48.940;12.050;2023-07-29T04:20:02;96985.50;;;15.71;100.00
75008;BME280;63554;48.940;12.050;2023-07-29T04:24:06;96976.28;;;15.77;100.00
75008;BME280;63554;48.940;12.050;2023-07-29T04:28:09;96985.34;;;15.83;100.00
75008;BME280;63554;48.940;12.050;2023-07-29T04:32:11;96978.59;;;15.96;100.00
75008;BME280;63554;48.940;12.050;2023-07-29T04:36:14;96986.59;;;16.08;100.00
75008;BME280;63554;48.940;12.050;2023-07-29T04:40:18;96984.97;;;16.17;100.00
75008;BME280;63554;48.940;12.050;2023-07-29T04:44:21;96987.50;;;16.29;100.00
75008;BME280;63554;48.940;12.050;2023-07-29T04:48:23;96991.09;;;16.34;100.00
75008;BME280;63554;48.940;12.050;2023-07-29T04:52:26;96986.47;;;16.35;100.00
75008;BME280;63554;48.940;12.050;2023-07-29T04:56:30;96981.25;;;16.38;100.00
75008;BME280;63554;48.940;12.050;2023-07-29T05:00:33;96974.22;;;16.43;100.00
75008;BME280;63554;48.940;12.050;2023-07-29T05:04:36;96970.66;;;16.47;100.00
75008;BME280;63554;48.940;12.050;2023-07-29T05:08:38;96970.69;;;16.57;100.00
75008;BME280;63554;48.940;12.050;2023-07-29T05:12:42;96966.63;;;16.65;100.00
75008;BME280;63554;48.940;12.050;2023-07-29T05:16:45;96957.38;;;16.76;100.00
75008;BME280;63554;48.940;12.050;2023-07-29T05:20:49;96946.47;;;16.82;100.00
75008;BME280;63554;48.940;12.050;2023-07-29T05:24:51;96976.53;;;16.82;100.00
75008;BME280;63554;48.940;12.050;2023-07-29T05:28:56;96964.19;;;16.74;100.00
75008;BME280;63554;48.940;12.050;2023-07-29T05:33:01;96947.56;;;16.80;100.00
75008;BME280;63554;48.940;12.050;2023-07-29T05:37:04;96950.34;;;16.96;100.00
75008;BME280;63554;48.940;12.050;2023-07-29T05:41:07;96954.47;;;17.14;100.00
75008;BME280;63554;48.940;12.050;2023-07-29T05:45:11;96958.88;;;17.25;100.00
75008;BME280;63554;48.940;12.050;2023-07-29T05:49:14;96952.00;;;17.38;100.00
75008;BME280;63554;48.940;12.050;2023-07-29T05:53:17;96942.44;;;17.46;100.00
75008;BME280;63554;48.940;12.050;2023-07-29T05:57:19;96950.63;;;17.56;98.88
75008;BME280;63554;48.940;12.050;2023-07-29T06:01:23;96953.66;;;17.59;99.29
75008;BME280;63554;48.940;12.050;2023-07-29T06:05:26;96963.22;;;17.67;98.79
75008;BME280;63554;48.940;12.050;2023-07-29T06:09:29;96966.78;;;17.78;96.79
75008;BME280;63554;48.940;12.050;2023-07-29T06:13:32;96964.31;;;17.87;96.81
75008;BME280;63554;48.940;12.050;2023-07-29T06:17:36;96958.28;;;17.95;97.29
75008;BME280;63554;48.940;12.050;2023-07-29T06:21:39;96962.38;;;18.03;96.94
75008;BME280;63554;48.940;12.050;2023-07-29T06:25:42;96956.88;;;18.13;96.60
75008;BME280;63554;48.940;12.050;2023-07-29T06:29:44;96967.81;;;18.23;95.52
75008;BME280;63554;48.940;12.050;2023-07-29T06:33:48;96968.84;;;18.37;93.23
75008;BME280;63554;48.940;12.050;2023-07-29T06:37:51;96963.03;;;18.54;92.20
75008;BME280;63554;48.940;12.050;2023-07-29T06:41:54;96969.28;;;18.65;92.86
75008;BME280;63554;48.940;12.050;2023-07-29T06:45:57;96971.22;;;18.65;90.55
75008;BME280;63554;48.940;12.050;2023-07-29T06:50:01;96962.19;;;18.64;90.52
75008;BME280;63554;48.940;12.050;2023-07-29T06:54:03;96970.69;;;18.63;90.05
75008;BME280;63554;48.940;12.050;2023-07-29T06:58:06;96970.94;;;18.66;90.27
75008;BME280;63554;48.940;12.050;2023-07-29T07:02:09;96977.50;;;18.65;90.03
75008;BME280;63554;48.940;12.050;2023-07-29T07:06:14;96979.19;;;18.56;90.12
75008;BME280;63554;48.940;12.050;2023-07-29T07:10:18;96986.59;;;18.55;89.97
75008;BME280;63554;48.940;12.050;2023-07-29T07:14:20;96982.47;;;18.58;90.29
75008;BME280;63554;48.940;12.050;2023-07-29T07:18:23;96971.22;;;18.60;90.01
75008;BME280;63554;48.940;12.050;2023-07-29T07:22:27;96967.63;;;18.69;89.93
75008;BME280;63554;48.940;12.050;2023-07-29T07:26:30;96964.84;;;18.80;90.05
75008;BME280;63554;48.940;12.050;2023-07-29T07:30:33;96949.78;;;18.82;89.85
75008;BME280;63554;48.940;12.050;2023-07-29T07:34:36;96951.94;;;18.85;90.39
75008;BME280;63554;48.940;12.050;2023-07-29T07:38:40;96950.81;;;18.91;89.55
75008;BME280;63554;48.940;12.050;2023-07-29T07:42:43;96950.53;;;18.93;89.74
75008;BME280;63554;48.940;12.050;2023-07-29T07:46:45;96972.44;;;18.98;91.25
75008;BME280;63554;48.940;12.050;2023-07-29T07:50:48;96970.78;;;19.02;90.47
75008;BME280;63554;48.940;12.050;2023-07-29T07:54:53;96977.31;;;19.06;90.38
75008;BME280;63554;48.940;12.050;2023-07-29T07:58:56;96975.97;;;19.04;91.54
75008;BME280;63554;48.940;12.050;2023-07-29T08:02:59;96977.13;;;18.98;93.93
75008;BME280;63554;48.940;12.050;2023-07-29T08:07:01;97002.94;;;18.86;93.61
75008;BME280;63554;48.940;12.050;2023-07-29T08:11:05;97032.88;;;18.67;93.16
75008;BME280;63554;48.940;12.050;2023-07-29T08:15:08;97037.59;;;18.46;94.16
75008;BME280;63554;48.940;12.050;2023-07-29T08:19:11;97082.88;;;18.23;99.07
75008;BME280;63554;48.940;12.050;2023-07-29T08:23:14;97081.22;;;17.91;100.00
75008;BME280;63554;48.940;12.050;2023-07-29T08:27:18;97053.00;;;17.75;100.00
75008;BME280;63554;48.940;12.050;2023-07-29T08:31:20;97028.91;;;17.67;100.00
75008;BME280;63554;48.940;12.050;2023-07-29T08:35:23;96990.31;;;17.69;100.00
75008;BME280;63554;48.940;12.050;2023-07-29T08:39:26;97011.41;;;17.68;100.00
75008;BME280;63554;48.940;12.050;2023-07-29T08:43:32;96990.63;;;17.62;100.00
75008;BME280;63554;48.940;12.050;2023-07-29T08:47:34;96979.66;;;17.57;100.00
75008;BME280;63554;48.940;12.050;2023-07-29T08:51:38;96980.75;;;17.61;100.00
75008;BME280;63554;48.940;12.050;2023-07-29T08:55:42;96968.44;;;17.53;100.00
75008;BME280;63554;48.940;12.050;2023-07-29T08:59:46;96959.97;;;17.55;100.00
75008;BME280;63554;48.940;12.050;2023-07-29T09:03:49;96955.59;;;17.64;100.00
75008;BME280;63554;48.940;12.050;2023-07-29T09:07:53;96968.16;;;17.81;100.00
75008;BME280;63554;48.940;12.050;2023-07-29T09:11:58;96964.84;;;18.04;100.00
75008;BME280;63554;48.940;12.050;2023-07-29T09:16:04;96960.94;;;18.31;98.67
75008;BME280;63554;48.940;12.050;2023-07-29T09:20:09;96969.28;;;18.70;97.39
75008;BME280;63554;48.940;12.050;2023-07-29T09:24:15;96972.81;;;18.76;94.08
75008;BME280;63554;48.940;12.050;2023-07-29T09:28:19;96976.09;;;18.83;91.80
75008;BME280;63554;48.940;12.050;2023-07-29T09:32:25;96976.78;;;19.04;93.24
75008;BME280;63554;48.940;12.050;2023-07-29T09:36:30;96968.75;;;19.13;93.62
75008;BME280;63554;48.940;12.050;2023-07-29T09:40:36;96969.88;;;19.12;93.78
75008;BME280;63554;48.940;12.050;2023-07-29T09:44:39;96964.38;;;19.51;90.42
75008;BME280;63554;48.940;12.050;2023-07-29T09:48:43;96963.22;;;20.21;91.18
75008;BME280;63554;48.940;12.050;2023-07-29T09:52:50;96954.25;;;20.10;82.52
75008;BME280;63554;48.940;12.050;2023-07-29T09:56:53;96972.06;;;20.13;86.93
75008;BME280;63554;48.940;12.050;2023-07-29T10:00:56;96974.69;;;19.99;87.62
75008;BME280;63554;48.940;12.050;2023-07-29T10:05:01;97001.31;;;19.30;87.47
75008;BME280;63554;48.940;12.050;2023-07-29T10:09:05;97019.03;;;19.03;93.50
75008;BME280;63554;48.940;12.050;2023-07-29T10:13:09;97012.84;;;18.82;94.51
75008;BME280;63554;48.940;12.050;2023-07-29T10:17:15;96987.34;;;18.76;96.54
75008;BME280;63554;48.940;12.050;2023-07-29T10:21:21;96983.78;;;18.71;98.32
75008;BME280;63554;48.940;12.050;2023-07-29T10:25:25;96987.94;;;18.63;96.97
75008;BME280;63554;48.940;12.050;2023-07-29T10:29:38;96994.22;;;18.64;97.74
75008;BME280;63554;48.940;12.050;2023-07-29T10:33:42;96988.69;;;18.84;98.20
75008;BME280;63554;48.940;12.050;2023-07-29T10:37:47;96988.81;;;19.13;98.48
75008;BME280;63554;48.940;12.050;2023-07-29T10:42:00;96968.78;;;19.52;96.42
75008;BME280;63554;48.940;12.050;2023-07-29T10:46:15;96971.22;;;20.18;92.68
75008;BME280;63554;48.940;12.050;2023-07-29T10:50:20;96958.75;;;20.25;87.97
75008;BME280;63554;48.940;12.050;2023-07-29T10:54:24;96951.34;;;20.74;87.88
75008;BME280;63554;48.940;12.050;2023-07-29T10:58:29;96956.72;;;21.03;87.53
75008;BME280;63554;48.940;12.050;2023-07-29T11:02:35;96966.44;;;21.14;84.04
75008;BME280;63554;48.940;12.050;2023-07-29T11:11:03;96945.47;;;21.00;82.90
75008;BME280;63554;48.940;12.050;2023-07-29T11:15:16;96951.69;;;21.24;82.90
75008;BME280;63554;48.940;12.050;2023-07-29T11:19:20;96944.56;;;21.75;80.93
75008;BME280;63554;48.940;12.050;2023-07-29T11:23:28;96947.47;;;21.84;76.80
75008;BME280;63554;48.940;12.050;2023-07-29T11:27:33;96961.84;;;21.81;78.58
75008;BME280;63554;48.940;12.050;2023-07-29T11:31:39;96955.06;;;21.73;75.52
75008;BME280;63554;48.940;12.050;2023-07-29T11:35:42;96952.56;;;21.58;79.56
75008;BME280;63554;48.940;12.050;2023-07-29T11:39:45;96946.00;;;21.72;76.67
75008;BME280;63554;48.940;12.050;2023-07-29T11:43:49;96937.63;;;21.78;73.10
75008;BME280;63554;48.940;12.050;2023-07-29T11:47:52;96947.72;;;21.68;74.48
75008;BME280;63554;48.940;12.050;2023-07-29T11:51:54;96937.97;;;21.90;73.61
75008;BME280;63554;48.940;12.050;2023-07-29T11:55:58;96930.00;;;22.35;73.25
75008;BME280;63554;48.940;12.050;2023-07-29T12:00:03;96932.53;;;22.31;68.29
75008;BME280;63554;48.940;12.050;2023-07-29T12:04:07;96936.59;;;22.20;71.83
75008;BME280;63554;48.940;12.050;2023-07-29T12:08:10;96929.75;;;22.04;71.47
75008;BME280;63554;48.940;12.050;2023-07-29T12:12:14;96916.25;;;21.88;70.08
75008;BME280;63554;48.940;12.050;2023-07-29T12:16:18;96916.66;;;21.96;72.77
75008;BME280;63554;48.940;12.050;2023-07-29T12:20:21;96922.13;;;22.56;70.15
75008;BME280;63554;48.940;12.050;2023-07-29T12:24:24;96909.94;;;23.21;67.28
75008;BME280;63554;48.940;12.050;2023-07-29T12:28:27;96899.72;;;24.07;63.60
75008;BME280;63554;48.940;12.050;2023-07-29T12:32:31;96917.38;;;23.43;66.10
75008;BME280;63554;48.940;12.050;2023-07-29T12:36:42;96914.97;;;23.73;63.25
75008;BME280;63554;48.940;12.050;2023-07-29T12:40:45;96907.84;;;24.35;61.67
75008;BME280;63554;48.940;12.050;2023-07-29T12:44:47;96897.94;;;24.42;62.92
75008;BME280;63554;48.940;12.050;2023-07-29T12:48:51;96891.34;;;24.87;60.66
75008;BME280;63554;48.940;12.050;2023-07-29T12:52:54;96904.53;;;24.81;56.43
75008;BME280;63554;48.940;12.050;2023-07-29T12:56:57;96886.22;;;24.45;57.23
75008;BME280;63554;48.940;12.050;2023-07-29T13:01:00;96880.97;;;24.35;56.61
75008;BME280;63554;48.940;12.050;2023-07-29T13:05:05;96887.81;;;23.66;58.89
75008;BME280;63554;48.940;12.050;2023-07-29T13:09:08;96888.59;;;23.13;59.37
75008;BME280;63554;48.940;12.050;2023-07-29T13:13:11;96897.25;;;22.84;60.46
75008;BME280;63554;48.940;12.050;2023-07-29T13:17:13;96897.81;;;22.58;63.17
75008;BME280;63554;48.940;12.050;2023-07-29T13:21:17;96895.75;;;22.36;66.18
75008;BME280;63554;48.940;12.050;2023-07-29T13:25:20;96894.41;;;22.20;68.83
75008;BME280;63554;48.940;12.050;2023-07-29T13:29:23;96876.84;;;21.88;69.93
75008;BME280;63554;48.940;12.050;2023-07-29T13:33:25;96871.94;;;21.71;71.24
75008;BME280;63554;48.940;12.050;2023-07-29T13:37:29;96872.66;;;22.04;68.15
75008;BME280;63554;48.940;12.050;2023-07-29T13:41:32;96862.56;;;22.14;70.47
75008;BME280;63554;48.940;12.050;2023-07-29T13:45:35;96882.28;;;22.62;70.74
75008;BME280;63554;48.940;12.050;2023-07-29T13:49:37;96904.69;;;22.83;70.20
75008;BME280;63554;48.940;12.050;2023-07-29T13:53:41;96888.28;;;23.01;65.09
75008;BME280;63554;48.940;12.050;2023-07-29T13:57:44;96882.38;;;22.43;67.53
75008;BME280;63554;48.940;12.050;2023-07-29T14:01:47;96893.34;;;22.35;68.58
75008;BME280;63554;48.940;12.050;2023-07-29T14:05:49;96894.88;;;22.77;67.13
75008;BME280;63554;48.940;12.050;2023-07-29T14:09:53;96894.31;;;22.66;66.36
75008;BME280;63554;48.940;12.050;2023-07-29T14:13:56;96888.53;;;22.90;65.41
75008;BME280;63554;48.940;12.050;2023-07-29T14:17:59;96881.22;;;23.08;66.65
75008;BME280;63554;48.940;12.050;2023-07-29T14:22:04;96876.47;;;22.86;66.65
75008;BME280;63554;48.940;12.050;2023-07-29T14:26:08;96875.50;;;22.68;67.63
75008;BME280;63554;48.940;12.050;2023-07-29T14:30:12;96884.59;;;22.69;67.80
75008;BME280;63554;48.940;12.050;2023-07-29T14:34:14;96885.84;;;22.49;68.04
75008;BME280;63554;48.940;12.050;2023-07-29T14:38:17;96890.13;;;22.55;67.58
75008;BME280;63554;48.940;12.050;2023-07-29T14:42:21;96889.16;;;22.74;68.15
75008;BME280;63554;48.940;12.050;2023-07-29T14:46:24;96881.38;;;22.89;66.11
75008;BME280;63554;48.940;12.050;2023-07-29T14:50:27;96865.09;;;23.47;63.53
75008;BME280;63554;48.940;12.050;2023-07-29T14:54:29;96862.44;;;23.64;62.22
75008;BME280;63554;48.940;12.050;2023-07-29T14:58:35;96872.59;;;23.46;60.07
75008;BME280;63554;48.940;12.050;2023-07-29T15:02:37;96869.13;;;23.41;61.30
75008;BME280;63554;48.940;12.050;2023-07-29T15:06:40;96858.84;;;23.33;61.18
75008;BME280;63554;48.940;12.050;2023-07-29T15:10:45;96855.84;;;23.52;58.71
75008;BME280;63554;48.940;12.050;2023-07-29T15:14:49;96853.63;;;23.31;59.04
75008;BME280;63554;48.940;12.050;2023-07-29T15:18:51;96849.75;;;23.09;60.66
75008;BME280;63554;48.940;12.050;2023-07-29T15:22:54;96851.72;;;23.40;61.64
75008;BME280;63554;48.940;12.050;2023-07-29T15:26:57;96845.00;;;23.78;61.23
75008;BME280;63554;48.940;12.050;2023-07-29T15:31:01;96838.00;;;23.80;61.33
75008;BME280;63554;48.940;12.050;2023-07-29T15:35:04;96849.13;;;23.66;61.71
75008;BME280;63554;48.940;12.050;2023-07-29T15:39:07;96842.50;;;23.45;62.15
75008;BME280;63554;48.940;12.050;2023-07-29T15:43:10;96843.03;;;23.78;61.52
75008;BME280;63554;48.940;12.050;2023-07-29T15:47:14;96845.06;;;23.64;62.04
75008;BME280;63554;48.940;12.050;2023-07-29T15:51:20;96844.88;;;23.60;62.64
75008;BME280;63554;48.940;12.050;2023-07-29T15:55:25;96856.94;;;23.42;62.50
75008;BME280;63554;48.940;12.050;2023-07-29T15:59:28;96852.88;;;23.71;61.65
75008;BME280;63554;48.940;12.050;2023-07-29T16:03:32;96860.59;;;23.28;62.42
75008;BME280;63554;48.940;12.050;2023-07-29T16:07:35;96857.00;;;23.28;62.65
75008;BME280;63554;48.940;12.050;2023-07-29T16:11:38;96868.16;;;23.68;61.34
75008;BME280;63554;48.940;12.050;2023-07-29T16:15:41;96859.91;;;24.08;60.21
75008;BME280;63554;48.940;12.050;2023-07-29T16:19:56;96865.06;;;24.41;59.50
75008;BME280;63554;48.940;12.050;2023-07-29T16:23:59;96858.50;;;24.28;58.93
75008;BME280;63554;48.940;12.050;2023-07-29T16:28:02;96853.81;;;24.46;59.18
75008;BME280;63554;48.940;12.050;2023-07-29T16:32:05;96851.41;;;23.96;59.97
75008;BME280;63554;48.940;12.050;2023-07-29T16:36:09;96854.38;;;23.77;60.92
75008;BME280;63554;48.940;12.050;2023-07-29T16:40:12;96864.31;;;23.46;61.50
75008;BME280;63554;48.940;12.050;2023-07-29T16:44:15;96873.50;;;23.42;61.64
75008;BME280;63554;48.940;12.050;2023-07-29T16:48:18;96882.47;;;23.02;63.12
75008;BME280;63554;48.940;12.050;2023-07-29T16:52:22;96879.03;;;22.83;63.92
75008;BME280;63554;48.940;12.050;2023-07-29T16:56:25;96876.22;;;22.74;64.33
75008;BME280;63554;48.940;12.050;2023-07-29T17:00:27;96882.78;;;22.64;64.56
75008;BME280;63554;48.940;12.050;2023-07-29T17:04:30;96894.94;;;22.49;64.36
75008;BME280;63554;48.940;12.050;2023-07-29T17:08:34;96875.84;;;22.39;65.05
75008;BME280;63554;48.940;12.050;2023-07-29T17:12:37;96898.53;;;22.36;66.24
75008;BME280;63554;48.940;12.050;2023-07-29T17:16:39;96900.25;;;22.32;66.58
75008;BME280;63554;48.940;12.050;2023-07-29T17:20:42;96887.25;;;22.19;67.26
75008;BME280;63554;48.940;12.050;2023-07-29T17:24:46;96884.31;;;22.15;67.53
75008;BME280;63554;48.940;12.050;2023-07-29T17:28:49;96888.81;;;22.11;67.68
75008;BME280;63554;48.940;12.050;2023-07-29T17:32:52;96888.19;;;22.00;67.81
75008;BME280;63554;48.940;12.050;2023-07-29T17:36:54;96892.38;;;21.98;68.21
75008;BME280;63554;48.940;12.050;2023-07-29T17:40:58;96888.28;;;21.95;68.50
75008;BME280;63554;48.940;12.050;2023-07-29T17:45:05;96888.81;;;22.11;67.07
75008;BME280;63554;48.940;12.050;2023-07-29T17:49:07;96894.13;;;22.07;67.02
75008;BME280;63554;48.940;12.050;2023-07-29T17:53:10;96893.19;;;22.12;67.12
75008;BME280;63554;48.940;12.050;2023-07-29T17:57:15;96895.44;;;21.96;66.79
75008;BME280;63554;48.940;12.050;2023-07-29T18:01:17;96886.34;;;21.82;67.59
75008;BME280;63554;48.940;12.050;2023-07-29T18:05:20;96905.78;;;21.71;68.19
75008;BME280;63554;48.940;12.050;2023-07-29T18:09:23;96905.38;;;21.64;68.90
75008;BME280;63554;48.940;12.050;2023-07-29T18:13:27;96912.41;;;21.57;70.41
75008;BME280;63554;48.940;12.050;2023-07-29T18:17:30;96932.88;;;21.31;72.65
75008;BME280;63554;48.940;12.050;2023-07-29T18:21:33;96934.00;;;20.92;73.45
75008;BME280;63554;48.940;12.050;2023-07-29T18:25:35;96965.00;;;20.55;75.84
75008;BME280;63554;48.940;12.050;2023-07-29T18:29:40;96970.16;;;20.38;78.86
75008;BME280;63554;48.940;12.050;2023-07-29T18:33:42;96967.34;;;20.19;79.78
75008;BME280;63554;48.940;12.050;2023-07-29T18:37:46;96974.34;;;20.06;82.02
75008;BME280;63554;48.940;12.050;2023-07-29T18:41:49;96982.59;;;19.77;83.38
75008;BME280;63554;48.940;12.050;2023-07-29T18:45:53;96996.00;;;19.44;86.23
75008;BME280;63554;48.940;12.050;2023-07-29T18:49:56;96985.22;;;19.13;88.22
75008;BME280;63554;48.940;12.050;2023-07-29T18:54:00;96979.00;;;19.02;88.78
75008;BME280;63554;48.940;12.050;2023-07-29T18:58:02;96968.34;;;18.95;89.37
75008;BME280;63554;48.940;12.050;2023-07-29T19:02:06;96959.28;;;18.95;89.79
75008;BME280;63554;48.940;12.050;2023-07-29T19:06:09;96963.69;;;18.96;90.51
75008;BME280;63554;48.940;12.050;2023-07-29T19:10:12;96962.63;;;18.92;91.19
75008;BME280;63554;48.940;12.050;2023-07-29T19:14:15;96978.81;;;18.83;91.21
75008;BME280;63554;48.940;12.050;2023-07-29T19:18:21;96965.16;;;18.73;91.24
75008;BME280;63554;48.940;12.050;2023-07-29T19:22:24;96970.09;;;18.66;91.32
75008;BME280;63554;48.940;12.050;2023-07-29T19:26:27;96966.03;;;18.58;92.89
75008;BME280;63554;48.940;12.050;2023-07-29T19:30:30;96974.78;;;18.60;93.95
75008;BME280;63554;48.940;12.050;2023-07-29T19:34:34;96974.78;;;18.60;94.40
75008;BME280;63554;48.940;12.050;2023-07-29T19:38:38;96976.44;;;18.56;94.29
75008;BME280;63554;48.940;12.050;2023-07-29T19:42:40;96969.34;;;18.55;94.09
75008;BME280;63554;48.940;12.050;2023-07-29T19:46:43;96985.78;;;18.55;94.40
75008;BME280;63554;48.940;12.050;2023-07-29T19:50:47;96985.25;;;18.53;94.97
75008;BME280;63554;48.940;12.050;2023-07-29T19:54:50;96987.72;;;18.44;96.21
75008;BME280;63554;48.940;12.050;2023-07-29T19:58:52;96986.38;;;18.36;96.32
75008;BME280;63554;48.940;12.050;2023-07-29T20:02:55;96977.94;;;18.33;96.45
75008;BME280;63554;48.940;12.050;2023-07-29T20:06:59;96984.50;;;18.32;96.77
75008;BME280;63554;48.940;12.050;2023-07-29T20:11:02;96978.75;;;18.28;96.74
75008;BME280;63554;48.940;12.050;2023-07-29T20:15:06;96978.75;;;18.28;96.57
75008;BME280;63554;48.940;12.050;2023-07-29T20:19:09;96985.06;;;18.24;96.24
75008;BME280;63554;48.940;12.050;2023-07-29T20:23:14;96990.00;;;18.22;96.72
75008;BME280;63554;48.940;12.050;2023-07-29T20:27:16;96988.06;;;18.22;96.52
75008;BME280;63554;48.940;12.050;2023-07-29T20:31:19;96981.50;;;18.18;97.01
75008;BME280;63554;48.940;12.050;2023-07-29T20:35:22;96990.56;;;18.08;97.93
75008;BME280;63554;48.940;12.050;2023-07-29T20:39:26;96991.69;;;18.02;98.59
75008;BME280;63554;48.940;12.050;2023-07-29T20:43:29;97008.41;;;17.95;99.26
75008;BME280;63554;48.940;12.050;2023-07-29T20:47:34;97025.38;;;17.97;99.75
75008;BME280;63554;48.940;12.050;2023-07-29T20:51:37;97032.78;;;17.92;99.96
75008;BME280;63554;48.940;12.050;2023-07-29T20:55:42;97031.38;;;17.89;100.00
75008;BME280;63554;48.940;12.050;2023-07-29T20:59:45;97024.28;;;17.88;100.00
75008;BME280;63554;48.940;12.050;2023-07-29T21:03:47;97017.16;;;17.92;100.00
75008;BME280;63554;48.940;12.050;2023-07-29T21:07:50;97022.66;;;17.97;100.00
75008;BME280;63554;48.940;12.050;2023-07-29T21:11:55;97024.00;;;18.00;100.00
75008;BME280;63554;48.940;12.050;2023-07-29T21:15:58;97016.34;;;18.02;100.00